createdAt,value
2023-04-19T00:04:08.946Z,98855.00
2023-04-19T00:09:30.323Z,98849.00
2023-04-19T00:14:51.618Z,98853.00
2023-04-19T00:20:13.561Z,98850.00
2023-04-19T00:25:34.938Z,98839.00
2023-04-19T00:30:56.858Z,98832.00
2023-04-19T00:36:18.257Z,98821.00
2023-04-19T00:41:41.759Z,98824.00
2023-04-19T00:47:03.575Z,98823.00
2023-04-19T00:52:26.066Z,98810.00
2023-04-19T00:57:48.119Z,98815.00
2023-04-19T01:03:11.191Z,98812.00
2023-04-19T01:08:32.473Z,98811.00
2023-04-19T01:13:55.241Z,98798.00
2023-04-19T01:19:16.876Z,98805.00
2023-04-19T01:24:38.444Z,98802.00
2023-04-19T01:30:00.006Z,98793.00
2023-04-19T01:35:21.588Z,98797.00
2023-04-19T01:40:43.224Z,98794.00
2023-04-19T01:46:04.467Z,98777.00
2023-04-19T01:51:26.339Z,98776.00
2023-04-19T01:56:48.489Z,98773.00
2023-04-19T02:02:10.174Z,98776.00
2023-04-19T02:07:33.295Z,98768.00
2023-04-19T02:12:54.905Z,98754.00
2023-04-19T02:18:17.640Z,98769.00
2023-04-19T02:23:39.368Z,98762.00
2023-04-19T02:29:01.135Z,98763.00
2023-04-19T02:34:22.523Z,98764.00
2023-04-19T02:39:46.036Z,98768.00
2023-04-19T02:45:07.937Z,98767.00
2023-04-19T02:50:29.512Z,98761.00
2023-04-19T02:55:51.149Z,98756.00
2023-04-19T03:01:14.768Z,98746.00
2023-04-19T03:06:36.473Z,98739.00
2023-04-19T03:11:58.012Z,98737.00
2023-04-19T03:17:19.560Z,98726.00
2023-04-19T03:22:44.002Z,98718.00
2023-04-19T03:28:05.756Z,98720.00
2023-04-19T03:33:53.134Z,98712.00
2023-04-19T03:39:19.588Z,98726.00
2023-04-19T03:44:45.158Z,98717.00
2023-04-19T03:50:08.895Z,98728.00
2023-04-19T03:55:32.321Z,98713.00
2023-04-19T04:00:55.311Z,98712.00
2023-04-19T04:06:16.921Z,98712.00
2023-04-19T04:11:38.376Z,98696.00
2023-04-19T04:17:00.616Z,98693.00
2023-04-19T04:22:22.067Z,98705.00
2023-04-19T04:27:46.495Z,98697.00
2023-04-19T04:33:14.156Z,98699.00
2023-04-19T04:38:37.620Z,98696.00
2023-04-19T04:44:12.193Z,98693.00
2023-04-19T04:49:34.411Z,98699.00
2023-04-19T04:54:56.395Z,98705.00
2023-04-19T05:00:24.412Z,98706.00
2023-04-19T05:05:54.398Z,98695.00
2023-04-19T05:11:16.425Z,98704.00
2023-04-19T05:16:39.991Z,98694.00
2023-04-19T05:22:01.875Z,98700.00
2023-04-19T05:27:23.407Z,98709.00
2023-04-19T05:32:45.137Z,98690.00
2023-04-19T05:38:10.030Z,98688.00
2023-04-19T05:43:31.670Z,98704.00
2023-04-19T05:48:53.229Z,98704.00
2023-04-19T05:54:36.050Z,98697.00
2023-04-19T06:05:35.205Z,98694.00
2023-04-19T06:11:02.089Z,98703.00
2023-04-19T06:16:27.016Z,98700.00
2023-04-19T06:21:48.545Z,98713.00
2023-04-19T06:27:10.100Z,98698.00
2023-04-19T06:32:31.597Z,98704.00
2023-04-19T06:37:53.127Z,98712.00
2023-04-19T06:43:14.650Z,98703.00
2023-04-19T06:48:36.673Z,98692.00
2023-04-19T06:53:57.981Z,98691.00
2023-04-19T06:59:21.286Z,98684.00
2023-04-19T07:04:42.710Z,98685.00
2023-04-19T07:10:04.764Z,98672.00
2023-04-19T07:15:26.253Z,98684.00
2023-04-19T07:20:49.645Z,98682.00
2023-04-19T07:26:11.408Z,98675.00
2023-04-19T07:31:32.743Z,98659.00
2023-04-19T07:36:54.308Z,98667.00
2023-04-19T07:42:15.967Z,98670.00
2023-04-19T07:47:37.814Z,98673.00
2023-04-19T07:52:59.224Z,98676.00
2023-04-19T07:58:20.814Z,98671.00
2023-04-19T08:03:42.951Z,98661.00
2023-04-19T08:09:04.904Z,98656.00
2023-04-19T08:14:37.651Z,98667.00
2023-04-19T08:20:07.048Z,98662.00
2023-04-19T08:25:31.916Z,98662.00
2023-04-19T08:30:54.590Z,98662.00
2023-04-19T08:36:22.024Z,98658.00
2023-04-19T08:41:44.837Z,98656.00
2023-04-19T08:47:09.058Z,98653.00
2023-04-19T08:52:35.413Z,98647.00
2023-04-19T08:57:58.900Z,98632.00
2023-04-19T09:03:20.549Z,98624.00
2023-04-19T09:08:42.128Z,98627.00
2023-04-19T09:14:11.421Z,98618.00
2023-04-19T09:19:47.561Z,98610.00
2023-04-19T09:30:40.255Z,98612.00
2023-04-19T09:36:09.028Z,98594.00
2023-04-19T09:41:39.564Z,98590.00
2023-04-19T09:47:02.244Z,98598.00
2023-04-19T09:52:23.860Z,98586.00
2023-04-19T09:57:45.788Z,98582.00
2023-04-19T10:03:09.411Z,98576.00
2023-04-19T10:08:32.596Z,98569.00
2023-04-19T10:14:00.516Z,98575.00
2023-04-19T10:19:24.458Z,98571.00
2023-04-19T10:25:13.286Z,98558.00
2023-04-19T10:30:35.057Z,98556.00
2023-04-19T10:35:58.344Z,98552.00
2023-04-19T10:41:20.284Z,98536.00
2023-04-19T10:46:41.603Z,98542.00
2023-04-19T10:52:03.328Z,98537.00
2023-04-19T10:57:25.547Z,98525.00
2023-04-19T11:02:47.053Z,98518.00
2023-04-19T11:08:09.643Z,98518.00
2023-04-19T11:13:33.575Z,98516.00
2023-04-19T11:18:56.244Z,98501.00
2023-04-19T11:24:21.220Z,98505.00
2023-04-19T11:29:42.598Z,98492.00
2023-04-19T11:35:08.978Z,98484.00
2023-04-19T11:40:30.338Z,98488.00
2023-04-19T11:45:52.039Z,98480.00
2023-04-19T11:51:16.455Z,98476.00
2023-04-19T11:56:56.457Z,98475.00
2023-04-19T12:02:19.451Z,98462.00
2023-04-19T12:08:04.480Z,98455.00
2023-04-19T12:13:29.341Z,98456.00
2023-04-19T12:18:51.857Z,98460.00
2023-04-19T12:24:16.232Z,98451.00
2023-04-19T12:29:37.869Z,98445.00
2023-04-19T12:34:59.149Z,98440.00
2023-04-19T12:40:21.608Z,98438.00
2023-04-19T12:45:42.886Z,98416.00
2023-04-19T12:51:05.819Z,98433.00
2023-04-19T12:56:27.207Z,98437.00
2023-04-19T13:01:48.783Z,98436.00
2023-04-19T13:07:10.400Z,98439.00
2023-04-19T13:12:31.870Z,98462.00
2023-04-19T13:17:53.478Z,98453.00
2023-04-19T13:23:15.760Z,98455.00
2023-04-19T13:28:37.000Z,98436.00
2023-04-19T13:34:00.666Z,98431.00
2023-04-19T13:39:22.405Z,98423.00
2023-04-19T13:44:43.905Z,98420.00
2023-04-19T13:50:05.903Z,98404.00
2023-04-19T13:55:27.490Z,98395.00
2023-04-19T14:00:49.189Z,98375.00
2023-04-19T14:06:10.546Z,98379.00
2023-04-19T14:11:32.344Z,98402.00
2023-04-19T14:16:54.036Z,98383.00
2023-04-19T14:22:17.249Z,98379.00
2023-04-19T14:27:38.663Z,98381.00
2023-04-19T14:33:00.363Z,98384.00
2023-04-19T14:38:21.986Z,98374.00
2023-04-19T14:43:43.565Z,98370.00
2023-04-19T14:49:06.149Z,98362.00
2023-04-19T14:54:27.768Z,98367.00
2023-04-19T14:59:49.236Z,98382.00
2023-04-19T15:05:11.185Z,98405.00
2023-04-19T15:10:32.998Z,98405.00
2023-04-19T15:15:54.676Z,98401.00
2023-04-19T15:21:18.634Z,98417.00
2023-04-19T15:26:40.721Z,98408.00
2023-04-19T15:32:04.761Z,98387.00
2023-04-19T15:37:27.493Z,98386.00
2023-04-19T15:42:48.575Z,98391.00
2023-04-19T15:48:11.375Z,98399.00
2023-04-19T15:53:32.953Z,98398.00
2023-04-19T15:58:54.279Z,98417.00
2023-04-19T16:04:15.971Z,98409.00
2023-04-19T16:09:43.058Z,98399.00
2023-04-19T16:15:05.265Z,98404.00
2023-04-19T16:20:26.930Z,98404.00
2023-04-19T16:25:48.324Z,98388.00
2023-04-19T16:31:09.670Z,98406.00
2023-04-19T16:36:32.078Z,98401.00
2023-04-19T16:41:53.685Z,98399.00
2023-04-19T16:47:15.330Z,98392.00
2023-04-19T16:52:36.841Z,98394.00
2023-04-19T16:57:58.404Z,98387.00
2023-04-19T17:03:20.417Z,98378.00
2023-04-19T17:08:41.816Z,98365.00
2023-04-19T17:14:03.323Z,98356.00
2023-04-19T17:19:24.999Z,98371.00
2023-04-19T17:24:46.473Z,98372.00
2023-04-19T17:30:08.834Z,98369.00
2023-04-19T17:35:30.197Z,98375.00
2023-04-19T17:40:51.857Z,98363.00
2023-04-19T17:46:14.218Z,98363.00
2023-04-19T17:51:35.605Z,98360.00
2023-04-19T17:56:59.484Z,98361.00
2023-04-19T18:02:21.373Z,98356.00
2023-04-19T18:07:42.770Z,98364.00
2023-04-19T18:13:04.334Z,98361.00
2023-04-19T18:18:25.986Z,98357.00
2023-04-19T18:23:47.566Z,98346.00
2023-04-19T18:29:09.626Z,98353.00
2023-04-19T18:34:31.172Z,98356.00
2023-04-19T18:39:52.396Z,98355.00
2023-04-19T18:45:14.557Z,98354.00
2023-04-19T18:50:38.429Z,98342.00
2023-04-19T18:56:00.846Z,98347.00
2023-04-19T19:01:22.159Z,98353.00
2023-04-19T19:06:43.811Z,98353.00
2023-04-19T19:12:05.540Z,98348.00
2023-04-19T19:17:28.321Z,98358.00
2023-04-19T19:22:51.307Z,98345.00
2023-04-19T19:28:12.789Z,98347.00
2023-04-19T19:33:34.399Z,98350.00
2023-04-19T19:38:55.596Z,98340.00
2023-04-19T19:44:17.203Z,98340.00
2023-04-19T19:55:03.372Z,98344.00
2023-04-19T20:00:42.859Z,98334.00
2023-04-19T20:11:31.447Z,98328.00
2023-04-19T20:16:53.367Z,98326.00
2023-04-19T20:22:14.727Z,98321.00
2023-04-19T20:27:36.349Z,98318.00
2023-04-19T20:32:58.009Z,98318.00
2023-04-19T20:38:19.488Z,98315.00
2023-04-19T20:43:40.877Z,98306.00
2023-04-19T20:49:02.401Z,98311.00
2023-04-19T20:54:24.043Z,98307.00
2023-04-19T20:59:47.243Z,98312.00
2023-04-19T21:05:08.834Z,98314.00
2023-04-19T21:10:30.775Z,98311.00
2023-04-19T21:15:52.266Z,98320.00
2023-04-19T21:21:13.750Z,98310.00
2023-04-19T21:26:35.608Z,98300.00
2023-04-19T21:31:57.199Z,98302.00
2023-04-19T21:37:20.524Z,98299.00
2023-04-19T21:42:42.022Z,98305.00
2023-04-19T21:48:03.647Z,98292.00
2023-04-19T21:53:26.440Z,98308.00
2023-04-19T21:58:47.995Z,98312.00
2023-04-19T22:04:12.148Z,98306.00
2023-04-19T22:09:34.308Z,98306.00
2023-04-19T22:14:56.064Z,98299.00
2023-04-19T22:20:17.932Z,98297.00
2023-04-19T22:25:39.130Z,98299.00
2023-04-19T22:31:00.360Z,98300.00
2023-04-19T22:36:21.931Z,98288.00
2023-04-19T22:41:43.279Z,98298.00
2023-04-19T22:47:05.070Z,98290.00
2023-04-19T22:52:26.618Z,98285.00
2023-04-19T22:57:50.775Z,98287.00
2023-04-19T23:03:12.115Z,98286.00
2023-04-19T23:08:33.568Z,98273.00
2023-04-19T23:13:55.456Z,98273.00
2023-04-19T23:19:17.686Z,98278.00
2023-04-19T23:24:39.273Z,98282.00
2023-04-19T23:30:01.608Z,98262.00
2023-04-19T23:35:23.076Z,98262.00
2023-04-19T23:40:45.603Z,98272.00
2023-04-19T23:46:07.499Z,98261.00
2023-04-19T23:51:28.870Z,98258.00
2023-04-19T23:56:50.185Z,98253.00
